createdAt,value
2023-05-13T00:00:32.788Z,101097.41
2023-05-13T00:03:10.910Z,101097.11
2023-05-13T00:05:38.645Z,101099.83
2023-05-13T00:08:09.742Z,101098.96
2023-05-13T00:10:37.654Z,101098.09
2023-05-13T00:13:05.370Z,101101.45
2023-05-13T00:15:33.008Z,101096.51
2023-05-13T00:18:00.732Z,101095.33
2023-05-13T00:20:28.443Z,101101.65
2023-05-13T00:22:56.172Z,101100.20
2023-05-13T00:25:24.344Z,101102.76
2023-05-13T00:27:52.269Z,101098.23
2023-05-13T00:30:21.197Z,101103.10
2023-05-13T00:32:49.134Z,101100.17
2023-05-13T00:35:16.887Z,101101.23
2023-05-13T00:37:45.162Z,101100.27
2023-05-13T00:40:23.955Z,101100.30
2023-05-13T00:42:52.357Z,101095.86
2023-05-13T00:45:19.966Z,101096.02
2023-05-13T00:47:49.625Z,101096.67
2023-05-13T00:50:17.499Z,101096.27
2023-05-13T00:52:46.300Z,101099.58
2023-05-13T00:55:14.078Z,101099.52
2023-05-13T00:57:41.931Z,101098.73
2023-05-13T01:00:10.660Z,101099.80
2023-05-13T01:03:12.831Z,101103.48
2023-05-13T01:06:09.937Z,101106.52
2023-05-13T01:08:46.699Z,101112.20
2023-05-13T01:11:25.716Z,101114.60
2023-05-13T01:14:02.812Z,101113.21
2023-05-13T01:16:55.870Z,101113.48
2023-05-13T01:19:43.233Z,101116.72
2023-05-13T01:22:11.000Z,101111.44
2023-05-13T01:24:38.846Z,101111.06
2023-05-13T01:27:07.321Z,101109.38
2023-05-13T01:29:35.698Z,101107.41
2023-05-13T01:32:04.243Z,101108.21
2023-05-13T01:34:33.710Z,101107.87
2023-05-13T01:37:01.642Z,101101.98
2023-05-13T01:39:31.873Z,101104.13
2023-05-13T01:41:59.521Z,101104.49
2023-05-13T01:44:27.147Z,101104.81
2023-05-13T01:46:55.421Z,101104.27
2023-05-13T01:49:23.378Z,101105.27
2023-05-13T01:51:52.167Z,101106.83
2023-05-13T01:54:19.815Z,101108.80
2023-05-13T01:56:47.699Z,101113.89
2023-05-13T01:59:15.462Z,101115.61
2023-05-13T02:01:43.136Z,101117.84
2023-05-13T02:04:11.445Z,101118.41
2023-05-13T02:06:39.173Z,101122.63
2023-05-13T02:09:06.801Z,101120.02
2023-05-13T02:11:35.777Z,101118.43
2023-05-13T02:14:03.710Z,101120.21
2023-05-13T02:16:31.626Z,101119.94
2023-05-13T02:18:59.434Z,101121.13
2023-05-13T02:21:27.134Z,101125.09
2023-05-13T02:23:54.815Z,101126.92
2023-05-13T02:26:22.478Z,101132.52
2023-05-13T02:28:50.501Z,101136.07
2023-05-13T02:31:18.143Z,101139.63
2023-05-13T02:33:45.880Z,101137.89
2023-05-13T02:36:13.623Z,101129.65
2023-05-13T02:38:41.387Z,101125.60
2023-05-13T02:41:11.468Z,101121.61
2023-05-13T02:43:39.236Z,101122.12
2023-05-13T02:46:06.969Z,101127.24
2023-05-13T02:48:34.826Z,101130.89
2023-05-13T02:51:02.507Z,101135.59
2023-05-13T02:53:30.953Z,101132.55
2023-05-13T02:55:59.343Z,101126.50
2023-05-13T02:58:26.985Z,101126.55
2023-05-13T03:00:54.685Z,101124.66
2023-05-13T03:03:22.542Z,101132.09
2023-05-13T03:05:50.413Z,101135.30
2023-05-13T03:08:18.147Z,101133.46
2023-05-13T03:10:45.802Z,101133.20
2023-05-13T03:13:13.493Z,101133.09
2023-05-13T03:15:43.455Z,101126.36
2023-05-13T03:18:12.037Z,101116.16
2023-05-13T03:20:40.066Z,101111.01
2023-05-13T03:23:08.155Z,101110.09
2023-05-13T03:25:35.780Z,101111.02
2023-05-13T03:28:03.986Z,101114.48
2023-05-13T03:30:31.708Z,101118.17
2023-05-13T03:33:00.652Z,101129.23
2023-05-13T03:35:28.378Z,101129.52
2023-05-13T03:37:55.999Z,101128.08
2023-05-13T03:40:23.784Z,101129.34
2023-05-13T03:42:51.697Z,101130.86
2023-05-13T03:45:19.519Z,101125.35
2023-05-13T03:47:47.386Z,101123.68
2023-05-13T03:50:15.134Z,101128.95
2023-05-13T03:52:43.981Z,101130.26
2023-05-13T03:55:15.025Z,101137.30
2023-05-13T03:57:47.585Z,101140.52
2023-05-13T04:00:15.952Z,101140.02
2023-05-13T04:02:44.482Z,101138.78
2023-05-13T04:05:13.813Z,101139.48
2023-05-13T04:07:41.884Z,101140.21
2023-05-13T04:10:12.333Z,101141.77
2023-05-13T04:12:41.452Z,101143.47
2023-05-13T04:15:09.395Z,101144.76
2023-05-13T04:17:37.166Z,101145.46
2023-05-13T04:20:07.515Z,101148.02
2023-05-13T04:22:35.868Z,101150.84
2023-05-13T04:25:03.641Z,101154.39
2023-05-13T04:27:33.411Z,101154.77
2023-05-13T04:30:01.286Z,101155.15
2023-05-13T04:32:32.105Z,101154.55
2023-05-13T04:34:59.765Z,101155.06
2023-05-13T04:37:27.491Z,101152.70
2023-05-13T04:39:55.202Z,101157.77
2023-05-13T04:42:22.881Z,101160.76
2023-05-13T04:44:50.506Z,101172.14
2023-05-13T04:47:18.874Z,101180.77
2023-05-13T04:49:46.767Z,101181.16
2023-05-13T04:52:15.036Z,101183.20
2023-05-13T04:54:42.737Z,101183.69
2023-05-13T04:57:10.406Z,101182.39
2023-05-13T04:59:38.660Z,101188.27
2023-05-13T05:02:06.360Z,101189.37
2023-05-13T05:04:34.121Z,101187.23
2023-05-13T05:07:01.828Z,101183.80
2023-05-13T05:09:30.253Z,101179.97
2023-05-13T05:11:57.912Z,101179.80
2023-05-13T05:14:25.580Z,101180.20
2023-05-13T05:16:53.281Z,101177.27
2023-05-13T05:19:24.292Z,101178.67
2023-05-13T05:21:52.619Z,101177.54
2023-05-13T05:24:20.434Z,101177.08
2023-05-13T05:26:48.112Z,101177.81
2023-05-13T05:29:16.413Z,101175.38
2023-05-13T05:31:44.480Z,101180.60
2023-05-13T05:34:12.410Z,101190.64
2023-05-13T05:36:40.041Z,101193.71
2023-05-13T05:39:07.980Z,101194.81
2023-05-13T05:41:35.763Z,101202.29
2023-05-13T05:44:09.899Z,101199.42
2023-05-13T05:46:37.589Z,101194.86
2023-05-13T05:49:05.286Z,101189.95
2023-05-13T05:51:32.903Z,101191.16
2023-05-13T05:54:00.479Z,101183.81
2023-05-13T05:56:28.110Z,101189.78
2023-05-13T05:58:55.785Z,101186.65
2023-05-13T06:01:23.412Z,101183.81
2023-05-13T06:03:53.972Z,101179.20
2023-05-13T06:06:22.681Z,101183.06
2023-05-13T06:08:50.393Z,101188.85
2023-05-13T06:11:18.177Z,101192.59
2023-05-13T06:13:46.006Z,101193.42
2023-05-13T06:16:13.743Z,101198.35
2023-05-13T06:18:41.470Z,101195.77
2023-05-13T06:21:09.346Z,101201.50
2023-05-13T06:23:37.792Z,101200.77
2023-05-13T06:26:05.541Z,101198.90
2023-05-13T06:28:33.347Z,101203.42
2023-05-13T06:31:00.973Z,101196.77
2023-05-13T06:33:28.844Z,101204.80
2023-05-13T06:35:56.644Z,101207.25
2023-05-13T06:38:24.346Z,101199.52
2023-05-13T06:40:52.081Z,101199.48
2023-05-13T06:43:19.776Z,101200.58
2023-05-13T06:45:48.841Z,101201.13
2023-05-13T06:48:16.661Z,101195.54
2023-05-13T06:50:44.410Z,101198.97
2023-05-13T06:53:12.622Z,101197.82
2023-05-13T06:55:42.651Z,101199.24
2023-05-13T06:58:10.692Z,101199.27
2023-05-13T07:00:40.524Z,101198.34
2023-05-13T07:03:08.695Z,101196.27
2023-05-13T07:05:36.568Z,101196.64
2023-05-13T07:08:08.496Z,101191.65
2023-05-13T07:10:37.063Z,101194.77
2023-05-13T07:13:05.010Z,101197.45
2023-05-13T07:15:32.774Z,101196.92
2023-05-13T07:18:00.500Z,101197.75
2023-05-13T07:20:28.221Z,101196.92
2023-05-13T07:22:56.373Z,101200.63
2023-05-13T07:25:24.968Z,101196.92
2023-05-13T07:27:52.613Z,101200.32
2023-05-13T07:30:20.566Z,101198.06
2023-05-13T07:32:48.519Z,101199.85
2023-05-13T07:35:17.225Z,101199.52
2023-05-13T07:37:45.196Z,101194.41
2023-05-13T07:40:13.997Z,101194.33
2023-05-13T07:42:42.240Z,101189.32
2023-05-13T07:45:10.498Z,101189.50
2023-05-13T07:47:38.364Z,101187.95
2023-05-13T07:50:07.579Z,101191.66
2023-05-13T07:52:35.537Z,101191.63
2023-05-13T07:55:03.249Z,101185.69
2023-05-13T07:57:30.897Z,101186.27
2023-05-13T07:59:58.591Z,101191.90
2023-05-13T08:02:27.066Z,101188.33
2023-05-13T08:04:55.113Z,101190.61
2023-05-13T08:07:22.793Z,101192.61
2023-05-13T08:09:50.487Z,101182.25
2023-05-13T08:12:18.200Z,101184.45
2023-05-13T08:14:47.571Z,101180.23
2023-05-13T08:17:18.280Z,101180.27
2023-05-13T08:19:46.356Z,101180.29
2023-05-13T08:22:14.020Z,101181.98
2023-05-13T08:24:43.181Z,101179.77
2023-05-13T08:27:10.895Z,101178.95
2023-05-13T08:29:38.694Z,101178.46
2023-05-13T08:32:07.093Z,101177.77
2023-05-13T08:34:34.807Z,101177.61
2023-05-13T08:37:02.537Z,101179.61
2023-05-13T08:39:30.194Z,101179.22
2023-05-13T08:41:58.509Z,101179.82
2023-05-13T08:44:29.462Z,101177.77
2023-05-13T08:47:34.227Z,101172.88
2023-05-13T08:50:03.293Z,101166.52
2023-05-13T08:52:34.332Z,101161.02
2023-05-13T08:55:08.751Z,101158.42
2023-05-13T08:57:36.421Z,101161.17
2023-05-13T09:00:07.640Z,101165.86
2023-05-13T09:02:35.476Z,101168.15
2023-05-13T09:05:08.977Z,101166.36
2023-05-13T09:07:38.426Z,101168.45
2023-05-13T09:10:08.222Z,101158.27
2023-05-13T09:12:50.377Z,101155.02
2023-05-13T09:15:20.443Z,101151.05
2023-05-13T09:17:54.415Z,101157.56
2023-05-13T09:20:22.963Z,101161.74
2023-05-13T09:22:53.132Z,101165.95
2023-05-13T09:25:24.350Z,101165.48
2023-05-13T09:27:57.521Z,101164.94
2023-05-13T09:30:31.016Z,101157.92
2023-05-13T09:33:19.961Z,101152.45
2023-05-13T09:35:53.647Z,101151.48
2023-05-13T09:38:22.336Z,101145.21
2023-05-13T09:40:57.918Z,101146.80
2023-05-13T09:43:31.494Z,101148.58
2023-05-13T09:46:04.364Z,101153.29
2023-05-13T09:48:33.988Z,101153.83
2023-05-13T09:51:24.043Z,101151.98
2023-05-13T09:54:18.999Z,101150.16
2023-05-13T09:56:46.830Z,101134.51
2023-05-13T09:59:16.381Z,101129.77
2023-05-13T10:01:45.452Z,101126.29
2023-05-13T10:04:14.132Z,101123.55
2023-05-13T10:06:41.869Z,101127.15
2023-05-13T10:09:13.459Z,101130.30
2023-05-13T10:11:47.570Z,101127.37
2023-05-13T10:14:17.151Z,101119.92
2023-05-13T10:16:45.512Z,101117.94
2023-05-13T10:19:13.940Z,101113.22
2023-05-13T10:21:42.220Z,101120.94
2023-05-13T10:24:10.013Z,101119.81
2023-05-13T10:26:38.192Z,101116.30
2023-05-13T10:29:06.758Z,101114.55
2023-05-13T10:31:35.163Z,101115.80
2023-05-13T10:34:04.092Z,101115.48
2023-05-13T10:36:50.556Z,101110.84
2023-05-13T10:39:36.425Z,101112.98
2023-05-13T10:42:55.723Z,101115.04
2023-05-13T10:45:27.312Z,101113.23
2023-05-13T10:47:56.303Z,101118.96
2023-05-13T10:50:25.336Z,101120.85
2023-05-13T10:52:58.202Z,101110.94
2023-05-13T10:55:27.957Z,101113.91
2023-05-13T10:58:09.786Z,101103.98
2023-05-13T11:00:39.045Z,101099.36
2023-05-13T11:03:15.210Z,101095.67
2023-05-13T11:06:20.339Z,101089.33
2023-05-13T11:08:55.060Z,101089.85
2023-05-13T11:11:29.133Z,101087.05
2023-05-13T11:13:59.837Z,101091.60
2023-05-13T11:16:27.607Z,101093.44
2023-05-13T11:18:55.467Z,101096.38
2023-05-13T11:21:35.554Z,101098.98
2023-05-13T11:24:05.559Z,101104.24
2023-05-13T11:26:59.214Z,101110.09
2023-05-13T11:29:35.791Z,101113.90
2023-05-13T11:32:05.937Z,101116.27
2023-05-13T11:34:34.447Z,101108.64
2023-05-13T11:37:05.122Z,101105.94
2023-05-13T11:39:33.285Z,101104.95
2023-05-13T11:42:05.200Z,101106.22
2023-05-13T11:44:34.374Z,101101.15
2023-05-13T11:47:05.920Z,101099.11
2023-05-13T11:49:40.140Z,101101.39
2023-05-13T11:52:15.606Z,101104.56
2023-05-13T11:54:50.738Z,101099.54
2023-05-13T11:57:20.267Z,101103.39
2023-05-13T11:59:57.585Z,101104.19
2023-05-13T12:02:30.699Z,101103.36
2023-05-13T12:11:40.621Z,101090.72
2023-05-13T12:14:09.240Z,101092.20
2023-05-13T12:16:37.250Z,101087.76
2023-05-13T12:19:07.273Z,101086.20
2023-05-13T12:21:35.137Z,101083.60
2023-05-13T12:24:16.229Z,101082.39
2023-05-13T12:26:44.028Z,101081.80
2023-05-13T12:29:12.201Z,101076.90
2023-05-13T12:31:42.699Z,101076.30
2023-05-13T12:34:10.789Z,101083.71
2023-05-13T12:36:39.264Z,101086.05
2023-05-13T12:39:09.218Z,101085.52
2023-05-13T12:41:39.045Z,101080.66
2023-05-13T12:44:14.168Z,101078.23
2023-05-13T12:46:55.284Z,101073.77
2023-05-13T12:49:23.070Z,101070.34
2023-05-13T12:51:51.799Z,101074.42
2023-05-13T12:54:19.629Z,101074.80
2023-05-13T12:56:48.569Z,101069.27
2023-05-13T12:59:16.923Z,101068.16
2023-05-13T13:01:44.793Z,101066.59
2023-05-13T13:04:12.580Z,101065.94
2023-05-13T13:06:40.512Z,101067.12
2023-05-13T13:09:08.212Z,101069.79
2023-05-13T13:11:36.084Z,101073.65
2023-05-13T13:14:03.754Z,101072.52
2023-05-13T13:16:31.875Z,101060.22
2023-05-13T13:19:01.695Z,101061.23
2023-05-13T13:21:29.793Z,101058.09
2023-05-13T13:23:57.486Z,101057.81
2023-05-13T13:26:25.108Z,101054.96
2023-05-13T13:28:52.748Z,101052.50
2023-05-13T13:31:20.786Z,101048.73
2023-05-13T13:33:48.859Z,101049.89
2023-05-13T13:36:17.131Z,101048.55
2023-05-13T13:38:45.378Z,101047.70
2023-05-13T13:41:13.071Z,101048.64
2023-05-13T13:43:40.790Z,101048.94
2023-05-13T13:46:11.141Z,101044.09
2023-05-13T13:48:38.863Z,101042.87
2023-05-13T13:51:06.564Z,101047.29
2023-05-13T13:53:34.126Z,101049.55
2023-05-13T13:56:02.549Z,101048.37
2023-05-13T13:58:30.188Z,101064.09
2023-05-13T14:00:58.003Z,101062.27
2023-05-13T14:03:28.948Z,101081.89
2023-05-13T14:05:56.734Z,101109.08
2023-05-13T14:08:24.816Z,101089.34
2023-05-13T14:10:53.770Z,101055.68
2023-05-13T14:13:21.998Z,101036.92
2023-05-13T14:15:50.110Z,101037.05
2023-05-13T14:18:18.278Z,101044.63
2023-05-13T14:20:47.984Z,101038.61
2023-05-13T14:23:16.649Z,101040.73
2023-05-13T14:25:44.863Z,101034.47
2023-05-13T14:28:13.507Z,101035.30
2023-05-13T14:30:41.529Z,101033.08
2023-05-13T14:33:10.102Z,101033.10
2023-05-13T14:35:38.526Z,101033.31
2023-05-13T14:38:06.601Z,101037.34
2023-05-13T14:40:34.849Z,101036.42
2023-05-13T14:43:04.968Z,101040.54
2023-05-13T14:45:33.277Z,101048.27
2023-05-13T14:48:01.582Z,101048.32
2023-05-13T14:50:29.375Z,101050.62
2023-05-13T14:52:57.078Z,101049.60
2023-05-13T14:55:24.755Z,101057.15
2023-05-13T14:57:53.957Z,101058.64
2023-05-13T15:00:21.820Z,101055.02
2023-05-13T15:02:49.748Z,101059.03
2023-05-13T15:05:17.621Z,101062.88
2023-05-13T15:07:45.384Z,101063.48
2023-05-13T15:10:12.988Z,101062.59
2023-05-13T15:12:40.682Z,101069.63
2023-05-13T15:15:09.016Z,101070.66
2023-05-13T15:17:36.686Z,101077.32
2023-05-13T15:20:04.853Z,101084.68
2023-05-13T15:22:34.060Z,101075.48
2023-05-13T15:25:02.099Z,101056.98
2023-05-13T15:27:29.824Z,101042.50
2023-05-13T15:29:57.910Z,101032.70
2023-05-13T15:32:25.600Z,101029.57
2023-05-13T15:34:53.302Z,101028.77
2023-05-13T15:37:21.621Z,101031.89
2023-05-13T15:39:49.666Z,101028.29
2023-05-13T15:42:17.300Z,101026.49
2023-05-13T15:44:45.700Z,101021.42
2023-05-13T15:47:14.392Z,101017.89
2023-05-13T15:49:42.509Z,101018.34
2023-05-13T15:52:10.232Z,101013.48
2023-05-13T15:54:37.955Z,101017.85
2023-05-13T15:57:05.820Z,101021.01
2023-05-13T15:59:33.416Z,101018.77
2023-05-13T16:02:01.190Z,101014.08
2023-05-13T16:04:28.859Z,101015.00
2023-05-13T16:06:56.537Z,101008.80
2023-05-13T16:09:24.288Z,101010.37
2023-05-13T16:11:51.882Z,101002.21
2023-05-13T16:14:19.632Z,101001.31
2023-05-13T16:16:47.279Z,101002.91
2023-05-13T16:19:14.928Z,100995.61
2023-05-13T16:21:42.702Z,100994.20
2023-05-13T16:24:11.346Z,100989.34
2023-05-13T16:26:38.973Z,100989.90
2023-05-13T16:29:06.826Z,100985.62
2023-05-13T16:31:36.864Z,100988.59
2023-05-13T16:34:04.561Z,100992.23
2023-05-13T16:36:32.151Z,100989.70
2023-05-13T16:38:59.915Z,100989.63
2023-05-13T16:41:27.518Z,100986.69
2023-05-13T16:43:55.115Z,100985.23
2023-05-13T16:46:22.802Z,100986.70
2023-05-13T16:48:50.769Z,100987.80
2023-05-13T16:51:18.553Z,100989.42
2023-05-13T16:53:46.136Z,100990.77
2023-05-13T16:56:13.835Z,100987.85
2023-05-13T16:58:41.708Z,100991.69
2023-05-13T17:01:09.389Z,100989.07
2023-05-13T17:03:37.047Z,100989.05
2023-05-13T17:06:07.163Z,100986.90
2023-05-13T17:08:34.977Z,100988.15
2023-05-13T17:11:03.159Z,100987.11
2023-05-13T17:13:30.735Z,100985.36
2023-05-13T17:15:58.523Z,100987.89
2023-05-13T17:18:26.551Z,100984.13
2023-05-13T17:20:54.974Z,100988.50
2023-05-13T17:23:22.799Z,100992.17
2023-05-13T17:25:51.073Z,101006.73
2023-05-13T17:28:18.653Z,101015.70
2023-05-13T17:30:46.520Z,101012.58
2023-05-13T17:33:14.365Z,101009.63
2023-05-13T17:35:42.091Z,101017.34
2023-05-13T17:38:09.811Z,101020.54
2023-05-13T17:40:37.595Z,101021.02
2023-05-13T17:43:05.367Z,101026.01
2023-05-13T17:45:33.329Z,101025.64
2023-05-13T17:48:01.817Z,101023.73
2023-05-13T17:50:32.876Z,101024.43
2023-05-13T17:53:00.564Z,101022.97
2023-05-13T17:55:28.279Z,101024.59
2023-05-13T17:57:56.549Z,101024.70
2023-05-13T18:00:25.325Z,101022.06
2023-05-13T18:02:53.136Z,101021.70
2023-05-13T18:05:23.889Z,101018.23
2023-05-13T18:07:51.541Z,101016.34
2023-05-13T18:10:19.345Z,101016.56
2023-05-13T18:12:47.387Z,101012.27
2023-05-13T18:15:15.213Z,101011.63
2023-05-13T18:17:43.000Z,101012.15
2023-05-13T18:20:11.285Z,101015.18
2023-05-13T18:22:39.640Z,101017.89
2023-05-13T18:25:08.045Z,101020.00
2023-05-13T18:27:35.662Z,101022.16
2023-05-13T18:30:03.452Z,101027.67
2023-05-13T18:32:32.876Z,101026.56
2023-05-13T18:35:00.679Z,101030.48
2023-05-13T18:37:28.407Z,101029.03
2023-05-13T18:39:57.424Z,101029.44
2023-05-13T18:42:26.130Z,101034.54
2023-05-13T18:44:53.788Z,101031.90
2023-05-13T18:47:21.885Z,101031.84
2023-05-13T18:49:49.600Z,101032.57
2023-05-13T18:52:17.289Z,101027.48
2023-05-13T18:54:45.006Z,101030.86
2023-05-13T18:57:12.682Z,101032.11
2023-05-13T18:59:40.340Z,101030.86
2023-05-13T19:02:08.134Z,101031.55
2023-05-13T19:04:36.173Z,101034.05
2023-05-13T19:07:04.154Z,101035.52
2023-05-13T19:09:33.482Z,101034.76
2023-05-13T19:12:01.290Z,101034.41
2023-05-13T19:14:28.850Z,101028.27
2023-05-13T19:16:56.680Z,101028.06
2023-05-13T19:19:24.644Z,101029.54
2023-05-13T19:21:52.389Z,101032.37
2023-05-13T19:24:20.003Z,101032.48
2023-05-13T19:26:47.592Z,101032.42
2023-05-13T19:29:15.216Z,101031.59
2023-05-13T19:31:43.123Z,101030.91
2023-05-13T19:34:10.895Z,101026.55
2023-05-13T19:36:38.798Z,101034.98
2023-05-13T19:39:06.403Z,101035.45
2023-05-13T19:41:34.592Z,101033.61
2023-05-13T19:44:02.369Z,101035.92
2023-05-13T19:46:30.072Z,101033.39
2023-05-13T19:48:57.689Z,101034.52
2023-05-13T19:51:26.740Z,101037.88
2023-05-13T19:53:54.352Z,101033.35
2023-05-13T19:56:23.142Z,101034.02
2023-05-13T19:58:50.830Z,101035.52
2023-05-13T20:01:18.834Z,101041.43
2023-05-13T20:03:47.002Z,101046.16
2023-05-13T20:06:14.672Z,101044.80
2023-05-13T20:08:42.269Z,101043.74
2023-05-13T20:11:10.056Z,101041.29
2023-05-13T20:13:37.696Z,101043.33
2023-05-13T20:16:05.522Z,101044.08
2023-05-13T20:18:34.008Z,101038.04
2023-05-13T20:21:01.906Z,101032.53
2023-05-13T20:23:29.677Z,101039.16
2023-05-13T20:25:58.384Z,101041.66
2023-05-13T20:28:25.945Z,101037.02
2023-05-13T20:30:54.155Z,101036.80
2023-05-13T20:33:21.838Z,101031.86
2023-05-13T20:35:49.525Z,101033.06
2023-05-13T20:38:17.711Z,101034.06
2023-05-13T20:40:45.339Z,101036.23
2023-05-13T20:43:13.238Z,101038.17
2023-05-13T20:45:40.967Z,101032.15
2023-05-13T20:48:09.424Z,101030.52
2023-05-13T20:50:37.417Z,101031.89
2023-05-13T20:53:05.116Z,101026.73
2023-05-13T20:55:32.896Z,101027.52
2023-05-13T20:58:00.830Z,101024.86
2023-05-13T21:00:28.474Z,101022.04
2023-05-13T21:02:56.582Z,101025.96
2023-05-13T21:05:24.419Z,101022.73
2023-05-13T21:07:52.626Z,101021.03
2023-05-13T21:10:20.545Z,101022.75
2023-05-13T21:12:48.270Z,101021.31
2023-05-13T21:15:16.750Z,101022.86
2023-05-13T21:17:44.509Z,101020.80
2023-05-13T21:20:12.684Z,101019.57
2023-05-13T21:22:40.415Z,101018.33
2023-05-13T21:25:10.526Z,101017.69
2023-05-13T21:27:38.630Z,101012.38
2023-05-13T21:30:06.803Z,101013.30
2023-05-13T21:32:34.534Z,101010.30
2023-05-13T21:35:02.163Z,101009.24
2023-05-13T21:37:30.022Z,101008.17
2023-05-13T21:39:57.715Z,101011.77
2023-05-13T21:42:26.999Z,101010.06
2023-05-13T21:44:54.804Z,101008.45
2023-05-13T21:47:22.579Z,101006.79
2023-05-13T21:49:50.402Z,101011.06
2023-05-13T21:52:18.492Z,101010.67
2023-05-13T21:54:46.108Z,101010.38
2023-05-13T21:57:13.865Z,101009.79
2023-05-13T21:59:41.654Z,101009.66
2023-05-13T22:02:09.654Z,101011.86
2023-05-13T22:04:39.857Z,101008.55
2023-05-13T22:07:08.045Z,101012.32
2023-05-13T22:09:35.914Z,101014.23
2023-05-13T22:12:04.080Z,101012.56
2023-05-13T22:14:31.962Z,101016.27
2023-05-13T22:17:08.976Z,101010.95
2023-05-13T22:19:37.845Z,101008.66
2023-05-13T22:22:06.057Z,101010.22
2023-05-13T22:24:33.843Z,101006.09
2023-05-13T22:27:01.632Z,101009.34
2023-05-13T22:29:29.383Z,101006.96
2023-05-13T22:32:00.206Z,101004.83
2023-05-13T22:34:27.992Z,101004.79
2023-05-13T22:36:55.699Z,101001.95
2023-05-13T22:39:23.319Z,101002.05
2023-05-13T22:41:50.941Z,101003.56
2023-05-13T22:44:18.636Z,101005.05
2023-05-13T22:46:46.356Z,101002.68
2023-05-13T22:49:14.193Z,101008.45
2023-05-13T22:51:41.909Z,101007.59
2023-05-13T22:54:09.620Z,101003.10
2023-05-13T22:56:37.235Z,101001.52
2023-05-13T22:59:06.176Z,100999.47
2023-05-13T23:01:33.901Z,100997.84
2023-05-13T23:04:02.898Z,100997.66
2023-05-13T23:06:30.796Z,100998.53
2023-05-13T23:08:58.392Z,101001.30
2023-05-13T23:11:26.013Z,101000.90
2023-05-13T23:13:53.850Z,101002.46
2023-05-13T23:16:21.526Z,101003.37
2023-05-13T23:18:49.339Z,101002.71
2023-05-13T23:21:16.932Z,101001.94
2023-05-13T23:23:44.820Z,101006.29
2023-05-13T23:26:13.926Z,101010.70
2023-05-13T23:28:42.650Z,101008.94
2023-05-13T23:31:10.400Z,101010.64
2023-05-13T23:33:38.002Z,101008.94
2023-05-13T23:36:06.085Z,101002.00
2023-05-13T23:38:34.753Z,101006.70
2023-05-13T23:41:02.521Z,101002.52
2023-05-13T23:43:30.355Z,101001.69
2023-05-13T23:45:58.028Z,101000.27
2023-05-13T23:48:28.869Z,101001.20
2023-05-13T23:50:56.484Z,100997.54
2023-05-13T23:53:24.054Z,100999.50
2023-05-13T23:55:51.667Z,101000.52
2023-05-13T23:58:19.336Z,101002.41
